Time;durP1;ratioP1;P1;durP2;ratioP2;P2;SDS_P1;SDS_P2;PMS_P1;PMS_P2;Temp;Humidity;BMP_temperature;BMP_pressure;BME280_temperature;BME280_humidity;BME280_pressure;Samples;Min_cycle;Max_cycle;Signal;HPM_P1;HPM_P2
2022/03/10 00:00:36;;;;;;;9.38;2.08;;;21.40;99.90;;;;;;5068692;28;20021;-67
2022/03/10 00:03:03;;;;;;;12.63;2.22;;;21.10;99.90;;;;;;5067824;28;20029;-67
2022/03/10 00:05:31;;;;;;;9.13;1.90;;;20.50;99.90;;;;;;5064449;28;20058;-67
2022/03/10 00:07:58;;;;;;;8.88;1.45;;;20.20;99.90;;;;;;5068159;28;20032;-67
2022/03/10 00:10:26;;;;;;;8.18;1.77;;;20.10;99.90;;;;;;5069721;28;20107;-67
2022/03/10 00:12:54;;;;;;;7.90;1.25;;;19.90;99.90;;;;;;5077878;28;20029;-66
2022/03/10 00:15:23;;;;;;;8.63;1.27;;;20.30;99.90;;;;;;5069836;28;20485;-66
2022/03/10 00:17:52;;;;;;;7.22;1.50;;;20.70;99.90;;;;;;5072308;28;20052;-66
2022/03/10 00:20:20;;;;;;;7.65;1.77;;;21.10;99.90;;;;;;5070270;28;20047;-66
2022/03/10 00:22:50;;;;;;;11.20;2.85;;;20.90;99.90;;;;;;5072215;28;20024;-66
2022/03/10 00:25:18;;;;;;;11.65;2.20;;;21.20;99.90;;;;;;5080213;28;20504;-67
2022/03/10 00:27:46;;;;;;;11.93;1.58;;;21.40;99.90;;;;;;5076912;28;20021;-65
2022/03/10 00:30:15;;;;;;;7.88;1.30;;;21.10;99.90;;;;;;5074130;28;20039;-66
2022/03/10 00:32:55;;;;;;;10.60;2.28;;;20.90;99.90;;;;;;5072453;28;20119;-65
2022/03/10 00:35:25;;;;;;;9.25;2.50;;;21.30;99.90;;;;;;5066816;28;20037;-66
2022/03/10 00:37:52;;;;;;;8.52;1.63;;;21.80;99.90;;;;;;5077265;28;20032;-66
2022/03/10 00:40:20;;;;;;;15.27;1.90;;;21.70;99.90;;;;;;5083374;28;20017;-65
2022/03/10 00:42:48;;;;;;;10.75;2.17;;;21.00;99.90;;;;;;5082756;28;20017;-66
2022/03/10 00:45:19;;;;;;;7.78;1.65;;;20.70;99.90;;;;;;5076693;28;20096;-66
2022/03/10 00:47:47;;;;;;;11.85;2.50;;;20.50;99.90;;;;;;5079439;28;20021;-65
2022/03/10 00:50:14;;;;;;;12.35;2.13;;;20.80;99.90;;;;;;5088443;28;20060;-65
2022/03/10 00:52:46;;;;;;;13.52;2.13;;;20.80;99.90;;;;;;5083443;28;20017;-66
2022/03/10 00:55:17;;;;;;;11.48;1.80;;;20.80;99.90;;;;;;5085761;28;20088;-65
2022/03/10 00:57:44;;;;;;;9.55;2.40;;;20.60;99.90;;;;;;5085460;28;20013;-66
2022/03/10 01:00:13;;;;;;;12.98;2.20;;;20.70;99.90;;;;;;5080630;28;20017;-66
2022/03/10 01:02:40;;;;;;;13.60;1.88;;;21.10;99.90;;;;;;5081296;28;20040;-66
2022/03/10 01:05:10;;;;;;;11.25;1.67;;;21.60;99.90;;;;;;5081265;28;20021;-66
2022/03/10 01:07:38;;;;;;;10.77;1.52;;;22.00;99.90;;;;;;5079719;28;21036;-66
2022/03/10 01:10:07;;;;;;;7.65;1.25;;;22.00;99.90;;;;;;5081596;28;20020;-66
2022/03/10 01:12:36;;;;;;;7.25;1.48;;;21.70;99.90;;;;;;5079172;28;20033;-66
2022/03/10 01:15:04;;;;;;;11.07;2.33;;;21.80;99.90;;;;;;5080849;28;20029;-65
2022/03/10 01:17:31;;;;;;;17.90;1.70;;;21.60;99.90;;;;;;5083438;28;20028;-66
2022/03/10 01:19:58;;;;;;;8.93;1.30;;;21.90;99.90;;;;;;5079858;28;20052;-66
2022/03/10 01:22:26;;;;;;;11.02;2.20;;;22.00;99.90;;;;;;5084145;28;20039;-66
2022/03/10 01:24:53;;;;;;;10.23;2.13;;;21.80;99.90;;;;;;5085122;28;20037;-65
2022/03/10 01:27:20;;;;;;;10.23;2.33;;;21.70;99.90;;;;;;5086239;28;20025;-66
2022/03/10 01:29:48;;;;;;;6.95;1.45;;;21.90;99.90;;;;;;5080597;28;20029;-66
2022/03/10 01:32:15;;;;;;;9.45;1.73;;;21.50;99.90;;;;;;5079886;28;20052;-66
2022/03/10 01:34:42;;;;;;;9.23;1.65;;;21.40;99.90;;;;;;5081974;28;20017;-66
2022/03/10 01:37:09;;;;;;;8.63;1.63;;;21.40;99.90;;;;;;5083041;28;20032;-66
2022/03/10 01:39:37;;;;;;;16.02;4.82;;;21.90;99.90;;;;;;5079016;28;20025;-66
2022/03/10 01:42:06;;;;;;;8.85;1.98;;;22.10;99.90;;;;;;5077384;28;20025;-66
2022/03/10 01:44:35;;;;;;;12.75;1.80;;;22.30;99.90;;;;;;5082861;28;20111;-67
2022/03/10 01:47:02;;;;;;;7.65;1.20;;;22.30;99.90;;;;;;5075511;28;20056;-67
2022/03/10 01:49:29;;;;;;;11.43;1.95;;;22.50;99.90;;;;;;5074099;28;20025;-67
2022/03/10 01:51:57;;;;;;;7.90;1.33;;;22.60;99.90;;;;;;5071790;28;20009;-66
2022/03/10 01:54:28;;;;;;;9.65;1.77;;;22.50;99.90;;;;;;5075670;28;20124;-66
2022/03/10 01:56:55;;;;;;;11.77;1.38;;;22.60;99.90;;;;;;5070989;28;20035;-67
2022/03/10 01:59:23;;;;;;;9.48;1.67;;;22.60;99.90;;;;;;5073770;28;20305;-66
2022/03/10 02:01:50;;;;;;;10.00;1.50;;;22.70;99.90;;;;;;5079849;28;20031;-66
2022/03/10 02:04:18;;;;;;;6.57;1.80;;;22.80;99.90;;;;;;5073960;28;20025;-67
2022/03/10 02:06:46;;;;;;;11.35;1.88;;;22.80;99.90;;;;;;5081468;28;20080;-67
2022/03/10 02:11:59;;;;;;;8.48;2.00;;;22.30;99.90;;;;;;5074936;28;20048;-66
2022/03/10 02:17:21;;;;;;;8.48;2.10;;;22.60;99.90;;;;;;5074868;28;20051;-66
2022/03/10 02:19:56;;;;;;;9.18;1.63;;;22.80;99.90;;;;;;5081191;28;20024;-66
2022/03/10 02:22:25;;;;;;;11.52;1.88;;;23.10;99.90;;;;;;5079427;28;20108;-66
2022/03/10 02:24:53;;;;;;;11.75;3.10;;;22.60;99.90;;;;;;5076261;28;20029;-67
2022/03/10 02:27:27;;;;;;;7.97;1.45;;;22.70;99.90;;;;;;5072949;28;20025;-67
2022/03/10 02:29:58;;;;;;;12.65;1.75;;;22.90;99.90;;;;;;5078730;28;20070;-67
2022/03/10 02:32:26;;;;;;;8.13;1.30;;;22.90;99.90;;;;;;5079767;28;20516;-67
2022/03/10 02:34:53;;;;;;;12.15;1.85;;;23.00;99.90;;;;;;5076865;28;20020;-67
2022/03/10 02:37:21;;;;;;;8.48;2.20;;;22.80;99.90;;;;;;5074435;28;20019;-67
2022/03/10 02:39:48;;;;;;;8.93;1.50;;;22.60;99.90;;;;;;5072800;28;20017;-67
2022/03/10 02:42:16;;;;;;;8.25;2.15;;;22.70;99.90;;;;;;5074914;28;20044;-66
2022/03/10 02:44:48;;;;;;;8.95;1.73;;;22.80;99.90;;;;;;5075083;28;20032;-66
2022/03/10 02:47:17;;;;;;;11.18;1.83;;;22.80;99.90;;;;;;5082612;28;20006;-67
2022/03/10 02:49:44;;;;;;;7.10;1.40;;;22.80;99.90;;;;;;5080213;28;20116;-66
2022/03/10 02:52:12;;;;;;;5.50;0.88;;;22.60;99.90;;;;;;5080843;28;20065;-67
2022/03/10 02:54:39;;;;;;;10.10;1.70;;;22.70;99.90;;;;;;5065926;28;20025;-67
2022/03/10 02:57:08;;;;;;;11.15;1.83;;;22.70;99.90;;;;;;5060271;28;20048;-68
2022/03/10 02:59:35;;;;;;;6.45;1.60;;;22.80;99.90;;;;;;5066008;28;20039;-67
2022/03/10 03:02:03;;;;;;;5.72;1.67;;;22.70;99.90;;;;;;5061443;28;20424;-67
2022/03/10 03:04:31;;;;;;;10.13;2.05;;;22.60;99.90;;;;;;5062129;28;20041;-66
2022/03/10 03:06:58;;;;;;;7.28;1.58;;;22.70;99.90;;;;;;5063386;28;20129;-66
2022/03/10 03:09:26;;;;;;;15.32;1.95;;;22.70;99.90;;;;;;5068323;28;20088;-66
2022/03/10 03:11:53;;;;;;;12.75;1.70;;;22.40;99.90;;;;;;5065994;28;20029;-66
2022/03/10 03:14:23;;;;;;;10.63;2.45;;;22.60;99.90;;;;;;5068569;28;20040;-66
2022/03/10 03:16:52;;;;;;;8.40;1.42;;;22.50;99.90;;;;;;5065075;28;20033;-67
2022/03/10 03:19:19;;;;;;;12.48;1.77;;;22.50;99.90;;;;;;5066754;28;20059;-65
2022/03/10 03:21:50;;;;;;;9.45;1.95;;;22.20;99.90;;;;;;5064872;28;20033;-66
2022/03/10 03:24:18;;;;;;;11.48;2.45;;;22.00;99.90;;;;;;5071970;28;20032;-66
2022/03/10 03:26:45;;;;;;;10.07;2.53;;;21.80;99.90;;;;;;5069026;28;20025;-66
2022/03/10 03:29:13;;;;;;;8.02;2.15;;;21.90;99.90;;;;;;5071488;28;20017;-66
2022/03/10 03:31:40;;;;;;;10.90;2.88;;;22.10;99.90;;;;;;5063557;28;20037;-65
2022/03/10 03:34:10;;;;;;;9.40;1.83;;;22.00;99.90;;;;;;5068447;28;20029;-66
2022/03/10 03:36:39;;;;;;;16.27;1.80;;;21.90;99.90;;;;;;5093169;28;20013;-66
2022/03/10 03:39:07;;;;;;;11.43;2.25;;;21.80;99.90;;;;;;5081848;28;20016;-66
2022/03/10 03:41:35;;;;;;;11.43;2.20;;;21.90;99.90;;;;;;5079159;28;20031;-66
2022/03/10 03:44:03;;;;;;;9.02;1.80;;;21.80;99.90;;;;;;5079816;28;20025;-66
2022/03/10 03:46:30;;;;;;;6.70;1.80;;;21.80;99.90;;;;;;5092636;28;20036;-66
2022/03/10 03:48:57;;;;;;;10.32;1.50;;;22.00;99.90;;;;;;5091146;28;20041;-65
2022/03/10 03:51:25;;;;;;;8.63;1.30;;;21.90;99.90;;;;;;5080197;28;20077;-65
2022/03/10 03:53:52;;;;;;;12.18;1.23;;;21.70;99.90;;;;;;5082611;28;20072;-66
2022/03/10 03:56:20;;;;;;;9.73;2.10;;;21.70;99.90;;;;;;5078594;28;20025;-65
2022/03/10 03:58:47;;;;;;;12.23;2.25;;;21.70;99.90;;;;;;5087798;28;20031;-65
2022/03/10 04:01:14;;;;;;;8.20;1.48;;;21.80;99.90;;;;;;5079625;28;20017;-66
2022/03/10 04:03:42;;;;;;;12.75;1.98;;;21.70;99.90;;;;;;5080229;28;20024;-66
2022/03/10 04:06:10;;;;;;;9.85;1.58;;;21.40;99.90;;;;;;5080231;28;20017;-65
2022/03/10 04:08:37;;;;;;;12.68;1.85;;;21.50;99.90;;;;;;5080444;28;20028;-65
2022/03/10 04:11:05;;;;;;;7.18;1.27;;;21.40;99.90;;;;;;5087371;28;20012;-65
2022/03/10 04:13:32;;;;;;;8.90;2.13;;;21.30;99.90;;;;;;5088120;28;20084;-65
2022/03/10 04:15:59;;;;;;;9.18;1.85;;;21.40;99.90;;;;;;5088875;28;20036;-65
2022/03/10 04:18:27;;;;;;;12.10;2.20;;;21.40;99.90;;;;;;5079087;28;20031;-65
2022/03/10 04:20:54;;;;;;;8.07;1.30;;;21.40;99.90;;;;;;5085078;28;20025;-65
2022/03/10 04:23:21;;;;;;;14.52;1.77;;;21.60;99.90;;;;;;5079462;28;20064;-65
2022/03/10 04:25:48;;;;;;;9.98;1.40;;;21.40;99.90;;;;;;5088176;28;20028;-65
2022/03/10 04:28:16;;;;;;;9.65;1.75;;;21.10;99.90;;;;;;5079195;28;20084;-65
2022/03/10 04:30:44;;;;;;;14.27;1.65;;;21.10;99.90;;;;;;5079711;28;20020;-65
2022/03/10 04:33:11;;;;;;;12.57;1.52;;;21.10;99.90;;;;;;5078797;28;20048;-65
2022/03/10 04:35:39;;;;;;;13.40;1.70;;;21.20;99.90;;;;;;5080657;28;20020;-65
2022/03/10 04:38:07;;;;;;;11.52;1.83;;;21.30;99.90;;;;;;5080221;28;20023;-66
2022/03/10 04:40:35;;;;;;;8.43;1.13;;;21.20;99.90;;;;;;5077383;28;20009;-67
2022/03/10 04:43:02;;;;;;;6.80;1.30;;;21.20;99.90;;;;;;5078866;28;20029;-67
2022/03/10 04:45:29;;;;;;;11.15;1.67;;;21.30;99.90;;;;;;5071775;28;20025;-66
2022/03/10 04:47:56;;;;;;;4.60;0.75;;;21.50;99.90;;;;;;5080910;28;20004;-66
2022/03/10 04:50:24;;;;;;;8.02;0.93;;;21.40;99.90;;;;;;5077813;28;20045;-66
2022/03/10 04:52:51;;;;;;;11.35;1.58;;;21.40;99.90;;;;;;5073685;28;20132;-66
2022/03/10 04:55:18;;;;;;;4.95;0.73;;;21.30;99.90;;;;;;5083617;28;20021;-66
2022/03/10 04:57:45;;;;;;;6.82;1.63;;;21.20;99.90;;;;;;5083156;28;20084;-66
2022/03/10 05:00:14;;;;;;;6.53;0.93;;;21.10;99.90;;;;;;5084669;28;20035;-66
2022/03/10 05:02:41;;;;;;;9.38;2.00;;;21.10;99.90;;;;;;5082058;28;20013;-66
2022/03/10 05:05:11;;;;;;;4.53;1.10;;;21.10;99.90;;;;;;5076304;28;20072;-66
2022/03/10 05:07:38;;;;;;;7.10;0.93;;;21.00;99.90;;;;;;5082446;28;20036;-66
2022/03/10 05:10:06;;;;;;;8.73;1.58;;;21.00;99.90;;;;;;5079273;28;20044;-66
2022/03/10 05:12:33;;;;;;;12.82;1.27;;;21.10;99.90;;;;;;5088990;28;20035;-67
2022/03/10 05:15:01;;;;;;;16.52;2.03;;;21.20;99.90;;;;;;5081734;28;20107;-66
2022/03/10 05:17:29;;;;;;;12.57;1.08;;;21.10;99.90;;;;;;5080236;28;20013;-66
2022/03/10 05:19:56;;;;;;;7.85;1.17;;;21.20;99.90;;;;;;5089537;28;20020;-66
2022/03/10 05:22:23;;;;;;;9.50;1.05;;;21.40;99.90;;;;;;5086401;28;20009;-66
2022/03/10 05:24:50;;;;;;;6.85;0.80;;;21.40;99.90;;;;;;5081091;28;22258;-65
2022/03/10 05:27:17;;;;;;;7.95;0.98;;;21.60;99.90;;;;;;5089791;28;20023;-65
2022/03/10 05:29:45;;;;;;;9.02;1.60;;;21.50;99.90;;;;;;5081181;28;20036;-65
2022/03/10 05:32:12;;;;;;;7.97;0.85;;;21.60;99.90;;;;;;5088674;28;20025;-67
2022/03/10 05:34:39;;;;;;;3.00;0.75;;;21.90;99.90;;;;;;5078914;28;20032;-66
2022/03/10 05:37:07;;;;;;;8.85;1.65;;;21.80;99.90;;;;;;5084551;28;20058;-65
2022/03/10 05:39:34;;;;;;;7.75;1.35;;;21.50;99.90;;;;;;5082505;28;20016;-66
2022/03/10 05:42:01;;;;;;;7.55;1.38;;;21.50;99.90;;;;;;5081317;28;20031;-66
2022/03/10 05:44:29;;;;;;;5.75;1.20;;;21.40;99.90;;;;;;5080343;28;20037;-65
2022/03/10 05:46:56;;;;;;;7.68;1.70;;;21.10;99.90;;;;;;5084130;28;20032;-65
2022/03/10 05:49:23;;;;;;;11.45;1.38;;;21.10;99.90;;;;;;5085224;28;20069;-65
2022/03/10 05:51:51;;;;;;;9.05;1.67;;;21.20;99.90;;;;;;5082609;28;20021;-65
2022/03/10 05:54:18;;;;;;;12.13;1.02;;;21.40;99.90;;;;;;5089731;28;20052;-65
2022/03/10 05:56:45;;;;;;;4.65;0.98;;;21.60;99.90;;;;;;5080551;28;20009;-65
2022/03/10 05:59:12;;;;;;;9.75;1.27;;;21.70;99.90;;;;;;5078154;28;20033;-65
2022/03/10 06:01:40;;;;;;;7.60;1.10;;;21.70;99.90;;;;;;5087060;28;20013;-65
2022/03/10 06:04:07;;;;;;;7.00;0.98;;;21.80;99.90;;;;;;5084589;28;20012;-65
2022/03/10 06:06:34;;;;;;;5.35;1.02;;;21.70;99.90;;;;;;5082547;28;20428;-65
2022/03/10 06:09:01;;;;;;;5.90;1.05;;;21.70;99.90;;;;;;5080726;28;20025;-65
2022/03/10 06:11:30;;;;;;;8.10;0.80;;;21.50;99.90;;;;;;5081737;28;20042;-65
2022/03/10 06:13:57;;;;;;;7.07;0.98;;;21.40;99.90;;;;;;5086476;28;20017;-65
2022/03/10 06:16:26;;;;;;;12.48;1.60;;;21.50;99.90;;;;;;5081170;28;20025;-65
2022/03/10 06:18:54;;;;;;;6.65;1.00;;;21.50;99.90;;;;;;5085579;28;20008;-65
2022/03/10 06:21:22;;;;;;;4.80;1.13;;;21.50;99.90;;;;;;5094684;28;20036;-65
2022/03/10 06:23:50;;;;;;;7.40;1.73;;;21.20;99.90;;;;;;5082589;28;20033;-64
2022/03/10 06:26:17;;;;;;;7.18;1.15;;;21.60;99.90;;;;;;5085955;28;20023;-65
2022/03/10 06:28:44;;;;;;;9.32;1.15;;;21.30;99.90;;;;;;5081002;28;20020;-65
2022/03/10 06:31:12;;;;;;;6.70;1.00;;;21.00;99.90;;;;;;5088698;28;20021;-65
2022/03/10 06:33:39;;;;;;;6.07;0.90;;;20.80;99.90;;;;;;5090555;28;20076;-65
2022/03/10 06:36:06;;;;;;;8.70;0.88;;;20.70;99.90;;;;;;5088587;28;20053;-65
2022/03/10 06:38:36;;;;;;;5.60;0.80;;;20.60;99.90;;;;;;5082877;28;20040;-66
2022/03/10 06:41:03;;;;;;;6.05;1.20;;;20.50;99.90;;;;;;5083875;28;20084;-65
2022/03/10 06:43:31;;;;;;;7.70;0.82;;;20.50;99.90;;;;;;5086533;28;20020;-65
2022/03/10 06:45:58;;;;;;;7.20;1.05;;;20.60;99.90;;;;;;5100605;28;20008;-65
2022/03/10 06:48:25;;;;;;;7.32;1.20;;;20.60;99.90;;;;;;5084445;28;20085;-65
2022/03/10 06:50:52;;;;;;;8.55;1.38;;;20.50;99.90;;;;;;5081206;28;20053;-65
2022/03/10 06:53:20;;;;;;;8.48;0.80;;;20.60;99.90;;;;;;5089444;28;20021;-65
2022/03/10 06:55:47;;;;;;;8.40;1.20;;;20.60;99.90;;;;;;5085260;28;20021;-65
2022/03/10 06:58:14;;;;;;;6.03;0.60;;;20.60;99.90;;;;;;5084622;28;20017;-65
2022/03/10 07:00:42;;;;;;;5.60;1.13;;;20.60;99.90;;;;;;5084907;28;20030;-65
2022/03/10 07:03:09;;;;;;;10.13;1.23;;;20.60;99.90;;;;;;5092173;28;20101;-66
2022/03/10 07:05:36;;;;;;;7.57;0.90;;;20.60;99.90;;;;;;5099184;28;20020;-65
2022/03/10 07:08:04;;;;;;;5.80;0.85;;;20.60;99.90;;;;;;5100440;28;20005;-65
2022/03/10 07:10:31;;;;;;;6.55;1.25;;;20.50;99.90;;;;;;5088122;28;20037;-66
2022/03/10 07:12:58;;;;;;;6.53;0.95;;;20.50;99.90;;;;;;5082379;28;20079;-65
2022/03/10 07:15:26;;;;;;;6.43;0.98;;;20.50;99.90;;;;;;5090948;28;20036;-66
2022/03/10 07:17:53;;;;;;;6.50;1.00;;;20.60;99.90;;;;;;5084343;28;20065;-65
2022/03/10 07:20:20;;;;;;;5.30;0.93;;;20.50;99.90;;;;;;5078829;28;20029;-65
2022/03/10 07:22:48;;;;;;;5.05;1.13;;;20.50;99.90;;;;;;5079576;28;20048;-65
2022/03/10 07:25:15;;;;;;;13.30;1.05;;;20.50;99.90;;;;;;5081750;28;20017;-65
2022/03/10 07:27:42;;;;;;;5.28;1.02;;;20.50;99.90;;;;;;5078954;28;20140;-65
2022/03/10 07:30:10;;;;;;;9.68;1.23;;;20.40;99.90;;;;;;5091278;28;20093;-65
2022/03/10 07:32:37;;;;;;;5.68;0.93;;;20.40;99.90;;;;;;5077730;28;20037;-64
2022/03/10 07:35:05;;;;;;;7.95;1.02;;;20.30;99.90;;;;;;5080192;28;20045;-64
2022/03/10 07:37:32;;;;;;;6.93;1.10;;;20.30;99.90;;;;;;5092919;28;20033;-64
2022/03/10 07:40:00;;;;;;;8.38;1.23;;;20.20;99.90;;;;;;5082829;28;20078;-65
2022/03/10 07:42:27;;;;;;;5.13;1.20;;;20.10;99.90;;;;;;5082327;28;20013;-65
2022/03/10 07:44:54;;;;;;;8.48;0.88;;;20.10;99.90;;;;;;5082794;28;20017;-65
2022/03/10 07:47:22;;;;;;;5.25;0.98;;;20.10;99.90;;;;;;5088154;28;20021;-64
2022/03/10 07:49:49;;;;;;;6.55;1.30;;;20.10;99.90;;;;;;5084807;28;20035;-65
2022/03/10 07:52:16;;;;;;;6.93;1.05;;;20.10;99.90;;;;;;5079592;28;20048;-64
2022/03/10 07:54:43;;;;;;;7.88;1.27;;;20.10;99.90;;;;;;5080948;28;20036;-64
2022/03/10 07:57:11;;;;;;;6.68;1.48;;;20.10;99.90;;;;;;5080122;28;20006;-64
2022/03/10 07:59:38;;;;;;;4.80;1.17;;;20.20;99.90;;;;;;5091713;28;20036;-64
2022/03/10 08:02:05;;;;;;;6.95;1.25;;;20.10;99.90;;;;;;5089423;28;20033;-64
2022/03/10 08:04:33;;;;;;;6.28;1.15;;;20.20;99.90;;;;;;5079933;28;20040;-64
2022/03/10 08:07:00;;;;;;;5.03;1.02;;;20.10;99.90;;;;;;5074501;28;20029;-64
2022/03/10 08:09:27;;;;;;;7.53;1.13;;;20.10;99.90;;;;;;5071495;28;20354;-64
2022/03/10 08:11:54;;;;;;;5.85;0.70;;;20.10;99.90;;;;;;5074834;28;20024;-64
2022/03/10 08:14:22;;;;;;;4.22;0.85;;;20.10;99.90;;;;;;5085064;28;20396;-64
2022/03/10 08:16:50;;;;;;;4.78;0.70;;;20.10;99.90;;;;;;5092047;28;20039;-65
2022/03/10 08:19:18;;;;;;;6.82;1.63;;;20.10;99.90;;;;;;5092300;28;20020;-65
2022/03/10 08:21:45;;;;;;;6.82;0.93;;;20.10;99.90;;;;;;5079517;28;20055;-65
2022/03/10 08:24:12;;;;;;;5.20;0.80;;;20.10;99.90;;;;;;5089052;28;20035;-65
2022/03/10 08:26:40;;;;;;;5.97;1.00;;;20.10;99.90;;;;;;5075446;28;20025;-65
2022/03/10 08:29:08;;;;;;;5.97;1.13;;;20.10;99.90;;;;;;5070153;28;20096;-64
2022/03/10 08:31:36;;;;;;;8.13;1.02;;;20.10;99.90;;;;;;5085602;28;20033;-64
2022/03/10 08:34:03;;;;;;;4.60;1.10;;;20.10;99.90;;;;;;5091217;28;20504;-65
2022/03/10 08:36:31;;;;;;;7.03;0.90;;;20.10;99.90;;;;;;5088234;28;20092;-65
2022/03/10 08:38:58;;;;;;;6.70;1.02;;;20.10;99.90;;;;;;5076539;28;20017;-65
2022/03/10 08:41:26;;;;;;;8.73;1.42;;;20.10;99.90;;;;;;5076300;28;20020;-65
2022/03/10 08:43:53;;;;;;;11.13;1.55;;;20.10;99.90;;;;;;5079227;28;20021;-65
2022/03/10 08:46:20;;;;;;;5.15;1.08;;;20.10;99.90;;;;;;5083436;28;20031;-65
2022/03/10 08:48:47;;;;;;;6.75;0.77;;;20.10;99.90;;;;;;5083887;28;20034;-65
2022/03/10 08:51:15;;;;;;;2.92;0.50;;;20.10;99.90;;;;;;5076160;28;20040;-65
2022/03/10 08:53:42;;;;;;;3.53;0.90;;;20.10;99.90;;;;;;5071260;28;20032;-65
2022/03/10 08:56:09;;;;;;;4.53;0.70;;;20.10;99.90;;;;;;5079679;28;20017;-65
2022/03/10 08:58:37;;;;;;;6.05;0.68;;;20.10;99.90;;;;;;5089682;28;20052;-65
2022/03/10 09:01:04;;;;;;;5.10;1.23;;;20.10;99.90;;;;;;5072937;28;20115;-64
2022/03/10 09:03:31;;;;;;;5.57;1.30;;;20.10;99.90;;;;;;5087673;28;20112;-65
2022/03/10 09:05:58;;;;;;;4.80;1.35;;;20.10;99.90;;;;;;5085401;28;20029;-65
2022/03/10 09:08:26;;;;;;;10.27;1.02;;;20.10;99.90;;;;;;5072306;28;20037;-65
2022/03/10 09:10:53;;;;;;;4.38;0.70;;;20.10;99.90;;;;;;5068267;28;20021;-65
2022/03/10 09:13:22;;;;;;;11.73;0.80;;;20.10;99.90;;;;;;5068900;28;20362;-65
2022/03/10 09:15:49;;;;;;;9.57;1.27;;;20.00;99.90;;;;;;5071225;28;20025;-65
2022/03/10 09:18:16;;;;;;;6.03;0.70;;;20.00;99.90;;;;;;5084940;28;20021;-65
2022/03/10 09:20:44;;;;;;;5.95;0.90;;;20.20;99.90;;;;;;5075514;28;20036;-65
2022/03/10 09:23:11;;;;;;;8.18;0.80;;;20.10;99.90;;;;;;5087477;28;20028;-66
2022/03/10 09:25:38;;;;;;;4.10;0.82;;;20.10;99.90;;;;;;5082615;28;20108;-65
2022/03/10 09:28:07;;;;;;;5.25;1.10;;;20.00;99.90;;;;;;5077638;28;20020;-65
2022/03/10 09:30:34;;;;;;;4.95;0.90;;;20.00;99.90;;;;;;5077779;28;20048;-65
2022/03/10 09:33:01;;;;;;;7.53;1.00;;;20.00;99.90;;;;;;5070398;28;20028;-65
2022/03/10 09:35:29;;;;;;;5.75;1.25;;;20.00;99.90;;;;;;5070699;28;20029;-65
2022/03/10 09:37:56;;;;;;;8.43;0.90;;;20.00;99.90;;;;;;5074974;28;20053;-65
2022/03/10 09:40:24;;;;;;;4.97;0.93;;;20.00;99.90;;;;;;5068947;28;20028;-65
2022/03/10 09:42:52;;;;;;;5.15;1.35;;;20.00;99.90;;;;;;5084013;28;20044;-65
2022/03/10 09:45:19;;;;;;;5.15;0.85;;;20.00;99.90;;;;;;5077759;28;20508;-65
2022/03/10 09:47:48;;;;;;;8.07;1.17;;;20.00;99.90;;;;;;5073100;28;20025;-65
2022/03/10 09:50:17;;;;;;;6.40;1.10;;;20.00;99.90;;;;;;5072242;28;20508;-65
2022/03/10 09:52:47;;;;;;;7.10;1.30;;;20.00;99.90;;;;;;5065687;28;20397;-65
2022/03/10 09:55:17;;;;;;;4.45;0.70;;;20.00;99.90;;;;;;5070927;28;20040;-65
2022/03/10 09:57:46;;;;;;;9.38;1.40;;;20.00;99.90;;;;;;5071053;28;20044;-65
2022/03/10 10:00:16;;;;;;;4.78;1.15;;;20.10;99.90;;;;;;5064568;28;20435;-65
2022/03/10 10:02:47;;;;;;;7.30;1.10;;;20.00;99.90;;;;;;5069077;28;20089;-65
2022/03/10 10:05:21;;;;;;;8.68;1.00;;;20.00;99.90;;;;;;5070727;28;20050;-64
2022/03/10 10:08:01;;;;;;;;;;;20.00;99.90;;;;;;5073101;28;20111;-65
2022/03/10 10:10:30;;;;;;;7.63;1.10;;;20.00;99.90;;;;;;5072620;28;19920;-66
2022/03/10 10:12:57;;;;;;;8.95;1.33;;;20.00;99.90;;;;;;5071350;28;20010;-65
2022/03/10 10:15:24;;;;;;;8.05;1.33;;;19.90;99.90;;;;;;5075084;28;20028;-65
2022/03/10 10:17:58;;;;;;;9.85;1.23;;;19.90;99.90;;;;;;5074347;28;20047;-64
2022/03/10 10:20:30;;;;;;;9.90;1.95;;;19.90;99.90;;;;;;5075579;28;20052;-66
2022/03/10 10:23:14;;;;;;;8.50;1.35;;;19.90;99.90;;;;;;5069534;28;20106;-65
2022/03/10 10:25:50;;;;;;;5.60;1.23;;;19.90;99.90;;;;;;5086411;28;20062;-65
2022/03/10 10:28:44;;;;;;;10.05;0.93;;;19.90;99.90;;;;;;5088494;28;20040;-65
2022/03/10 10:31:16;;;;;;;5.22;1.38;;;19.90;99.90;;;;;;5074866;28;20048;-65
2022/03/10 10:34:09;;;;;;;7.00;0.73;;;19.90;99.90;;;;;;5073708;28;20029;-65
2022/03/10 10:36:37;;;;;;;10.25;1.50;;;20.00;99.90;;;;;;5070856;28;20052;-65
2022/03/10 10:39:12;;;;;;;5.38;0.73;;;20.00;99.90;;;;;;5087997;28;20100;-65
2022/03/10 10:41:41;;;;;;;7.63;1.35;;;19.90;99.90;;;;;;5086447;28;20024;-65
2022/03/10 10:44:12;;;;;;;9.98;2.05;;;19.90;99.90;;;;;;5076948;28;20055;-67
2022/03/10 10:46:43;;;;;;;9.15;0.93;;;19.90;99.90;;;;;;5072223;28;20025;-65
2022/03/10 10:49:34;;;;;;;9.65;1.67;;;19.90;99.90;;;;;;5078708;28;20025;-65
2022/03/10 10:52:01;;;;;;;10.02;1.50;;;19.90;99.90;;;;;;5082401;28;22613;-65
2022/03/10 10:54:31;;;;;;;8.30;1.17;;;19.90;99.90;;;;;;5073309;28;20021;-65
2022/03/10 10:57:05;;;;;;;13.73;1.70;;;19.90;99.90;;;;;;5082271;28;20013;-65
2022/03/10 10:59:45;;;;;;;10.40;1.98;;;19.90;99.90;;;;;;5081315;28;20021;-65
2022/03/10 11:02:21;;;;;;;8.70;1.23;;;19.90;99.90;;;;;;5073123;28;20025;-65
2022/03/10 11:04:53;;;;;;;10.30;1.33;;;19.90;99.90;;;;;;5071515;28;20013;-65
2022/03/10 11:07:24;;;;;;;6.82;1.25;;;19.90;99.90;;;;;;5079641;28;20021;-65
2022/03/10 11:09:52;;;;;;;9.00;1.33;;;19.90;99.90;;;;;;5078663;28;20057;-65
2022/03/10 11:12:20;;;;;;;7.95;1.88;;;19.90;99.90;;;;;;5078659;28;20036;-65
2022/03/10 11:14:49;;;;;;;7.95;1.73;;;19.90;99.90;;;;;;5077502;28;20029;-65
2022/03/10 11:17:18;;;;;;;10.02;1.98;;;19.80;99.90;;;;;;5078205;28;20388;-65
2022/03/10 11:19:50;;;;;;;6.45;1.50;;;19.80;99.90;;;;;;5078121;28;20025;-65
2022/03/10 11:22:46;;;;;;;14.38;1.85;;;19.80;99.90;;;;;;5082035;28;20024;-65
2022/03/10 11:25:35;;;;;;;9.98;1.23;;;19.80;99.90;;;;;;5073571;28;20032;-65
2022/03/10 11:28:10;;;;;;;9.18;1.50;;;19.80;99.90;;;;;;5079534;28;20092;-65
2022/03/10 11:30:39;;;;;;;11.80;1.67;;;19.70;99.90;;;;;;5075385;28;20887;-64
2022/03/10 11:33:16;;;;;;;5.45;1.38;;;19.70;99.90;;;;;;5079411;28;20033;-65
2022/03/10 11:35:48;;;;;;;10.80;1.67;;;19.70;99.90;;;;;;5079127;28;20021;-65
2022/03/10 11:38:18;;;;;;;10.02;1.20;;;19.70;99.90;;;;;;5074837;28;20033;-65
2022/03/10 11:40:52;;;;;;;8.75;1.27;;;19.70;99.90;;;;;;5081897;28;20021;-65
2022/03/10 11:43:29;;;;;;;8.57;1.92;;;19.70;99.90;;;;;;5083935;28;20029;-65
2022/03/10 11:46:17;;;;;;;7.93;1.15;;;19.70;99.90;;;;;;5080277;28;20017;-65
2022/03/10 11:48:59;;;;;;;12.70;1.92;;;19.70;99.90;;;;;;5075647;28;20020;-65
2022/03/10 11:51:48;;;;;;;12.63;1.90;;;19.70;99.90;;;;;;5075676;28;20064;-65
2022/03/10 11:54:27;;;;;;;6.72;1.50;;;19.70;99.90;;;;;;5073471;28;20082;-65
2022/03/10 11:56:57;;;;;;;10.43;1.20;;;19.70;99.90;;;;;;5081827;28;20044;-65
2022/03/10 11:59:26;;;;;;;9.77;1.88;;;19.70;99.90;;;;;;5081534;28;20021;-65
2022/03/10 12:01:58;;;;;;;8.20;1.73;;;19.60;99.90;;;;;;5076624;28;20025;-65
2022/03/10 12:04:36;;;;;;;9.52;1.05;;;19.70;99.90;;;;;;5073214;28;20045;-65
2022/03/10 12:07:04;;;;;;;11.10;1.63;;;19.70;99.90;;;;;;5082429;28;20097;-65
2022/03/10 12:09:38;;;;;;;12.82;2.15;;;19.70;99.90;;;;;;5080775;28;20062;-65
2022/03/10 12:12:19;;;;;;;11.23;1.70;;;19.70;99.90;;;;;;5078326;28;20051;-64
2022/03/10 12:14:47;;;;;;;11.02;1.40;;;19.60;99.90;;;;;;5080101;28;20029;-65
2022/03/10 12:17:45;;;;;;;8.13;1.20;;;19.70;99.90;;;;;;5078616;28;20025;-65
2022/03/10 12:20:12;;;;;;;8.68;1.73;;;19.60;99.90;;;;;;5076717;28;20044;-65
2022/03/10 12:22:40;;;;;;;7.40;0.98;;;19.70;99.90;;;;;;5075960;28;20024;-65
2022/03/10 12:25:21;;;;;;;8.63;0.95;;;19.60;99.90;;;;;;5081295;28;20047;-65
2022/03/10 12:27:58;;;;;;;9.40;1.70;;;19.60;99.90;;;;;;5076250;28;20025;-65
2022/03/10 12:30:30;;;;;;;7.47;1.20;;;19.70;99.90;;;;;;5077006;28;20035;-65
2022/03/10 12:32:58;;;;;;;3.70;0.80;;;19.70;99.90;;;;;;5076478;28;20033;-65
2022/03/10 12:35:30;;;;;;;8.13;0.85;;;19.60;99.90;;;;;;5075563;28;20017;-66
2022/03/10 12:37:57;;;;;;;9.52;0.73;;;19.40;99.90;;;;;;5076295;28;20025;-65
2022/03/10 12:40:27;;;;;;;5.93;0.77;;;19.40;99.90;;;;;;5082532;28;20075;-65
2022/03/10 12:43:02;;;;;;;5.95;1.45;;;19.30;99.90;;;;;;5076882;28;20024;-65
2022/03/10 12:45:30;;;;;;;9.45;1.38;;;19.20;99.90;;;;;;5082354;28;20100;-65
2022/03/10 12:48:31;;;;;;;7.35;1.75;;;19.10;99.90;;;;;;5079399;28;20027;-65
2022/03/10 12:50:59;;;;;;;8.07;2.05;;;19.10;99.90;;;;;;5076488;28;20043;-65
2022/03/10 12:53:33;;;;;;;6.75;1.38;;;19.00;99.90;;;;;;5073676;28;20029;-65
2022/03/10 12:56:01;;;;;;;6.30;1.08;;;19.00;99.90;;;;;;5075361;28;20035;-65
2022/03/10 12:58:33;;;;;;;9.90;1.83;;;18.90;99.90;;;;;;5073657;28;20428;-65